Terminal Aerodrome Forecast
Issued by NWS

Home | Current Version | Previous Version | Text Only | Print | Product List | Glossary On
Versions: 1 2 3 4 5 6 7 8 9 10 11 12 13 14 15 16 17 18
000
FTUS45 KRIW 252300
TAFCPR
TAF
KCPR 252333Z 2600/2624 33008KT P6SM VCSH SCT035 BKN060
     FM260800 23006KT P6SM VCFG SCT004 SCT060
     FM261900 23009KT P6SM VCSH SCT030 BKN080=

USA.gov is the U.S. government's official web portal to all federal, state and local government web resources and services.